createdAt,value
2018-11-29T00:00:32.867Z,99540.63
2018-11-29T00:03:01.429Z,99533.23
2018-11-29T00:05:30.038Z,99535.52
2018-11-29T00:07:58.519Z,99538.66
2018-11-29T00:10:26.970Z,99532.81
2018-11-29T00:12:55.467Z,99533.01
2018-11-29T00:15:24.251Z,99529.05
2018-11-29T00:17:52.763Z,99527.83
2018-11-29T00:20:21.470Z,99525.09
2018-11-29T00:22:50.905Z,99512.51
2018-11-29T00:25:19.984Z,99513.03
2018-11-29T00:27:49.292Z,99507.29
2018-11-29T00:30:20.707Z,99512.34
2018-11-29T00:32:49.551Z,99509.23
2018-11-29T00:35:18.507Z,99509.86
2018-11-29T00:37:47.028Z,99504.31
2018-11-29T00:40:21.554Z,99464.26
2018-11-29T00:42:50.081Z,99491.70
2018-11-29T00:45:19.640Z,99494.91
2018-11-29T00:47:48.670Z,99502.73
2018-11-29T00:50:17.839Z,99502.63
2018-11-29T00:52:47.414Z,99508.28
2018-11-29T00:55:20.025Z,99503.62
2018-11-29T00:57:48.475Z,99501.68
2018-11-29T01:00:25.633Z,99504.75
2018-11-29T01:02:54.772Z,99507.39
2018-11-29T01:05:23.607Z,99499.73
2018-11-29T01:07:52.117Z,99501.91
2018-11-29T01:10:20.752Z,99503.95
2018-11-29T01:12:49.603Z,99500.58
2018-11-29T01:15:19.019Z,99505.70
2018-11-29T01:17:48.772Z,99508.80
2018-11-29T01:20:19.967Z,99504.64
2018-11-29T01:22:48.461Z,99512.69
2018-11-29T01:25:17.344Z,99508.10
2018-11-29T01:27:47.078Z,99507.30
2018-11-29T01:30:17.583Z,99507.91
2018-11-29T01:32:46.216Z,99504.05
2018-11-29T01:35:16.889Z,99507.98
2018-11-29T01:37:45.381Z,99504.06
2018-11-29T01:40:22.492Z,99502.73
2018-11-29T01:42:58.034Z,99504.13
2018-11-29T01:45:27.705Z,99505.70
2018-11-29T01:47:56.182Z,99510.81
2018-11-29T01:50:24.633Z,99515.94
2018-11-29T01:52:53.234Z,99512.31
2018-11-29T01:55:21.784Z,99517.69
2018-11-29T01:57:51.429Z,99514.66
2018-11-29T02:00:19.972Z,99521.36
2018-11-29T02:02:50.985Z,99521.16
2018-11-29T02:05:19.549Z,99521.23
2018-11-29T02:07:48.153Z,99514.06
2018-11-29T02:10:22.190Z,99505.55
2018-11-29T02:12:50.762Z,99505.15
2018-11-29T02:15:19.423Z,99501.84
2018-11-29T02:17:48.055Z,99498.38
2018-11-29T02:20:17.494Z,99484.32
2018-11-29T02:22:46.596Z,99474.45
2018-11-29T02:25:18.868Z,99480.86
2018-11-29T02:27:47.337Z,99434.63
2018-11-29T02:30:22.693Z,99475.25
2018-11-29T02:32:51.756Z,99470.98
2018-11-29T02:35:20.537Z,99461.55
2018-11-29T02:37:49.107Z,99465.70
2018-11-29T02:40:18.169Z,99457.63
2018-11-29T02:42:47.412Z,99444.22
2018-11-29T02:45:20.762Z,99444.61
2018-11-29T02:47:49.241Z,99450.88
2018-11-29T02:50:17.713Z,99444.03
2018-11-29T02:52:46.260Z,99440.86
2018-11-29T02:55:14.873Z,99433.90
2018-11-29T02:57:43.409Z,99428.45
2018-11-29T03:00:13.906Z,99431.84
2018-11-29T03:02:42.583Z,99417.16
2018-11-29T03:05:11.195Z,99427.50
2018-11-29T03:07:40.621Z,99417.67
2018-11-29T03:10:11.037Z,99413.87
2018-11-29T03:12:39.705Z,99422.34
2018-11-29T03:15:15.330Z,99424.58
2018-11-29T03:17:44.365Z,99433.79
2018-11-29T03:20:14.537Z,99439.11
2018-11-29T03:22:43.158Z,99435.84
2018-11-29T03:25:13.809Z,99429.61
2018-11-29T03:27:42.341Z,99431.42
2018-11-29T03:30:12.635Z,99421.33
2018-11-29T03:32:41.254Z,99414.45
2018-11-29T03:35:10.674Z,99423.59
2018-11-29T03:37:39.330Z,99424.13
2018-11-29T03:40:12.924Z,99416.09
2018-11-29T03:42:41.523Z,99411.19
2018-11-29T03:45:15.696Z,99415.23
2018-11-29T03:47:44.486Z,99419.09
2018-11-29T03:50:19.549Z,99423.05
2018-11-29T03:52:48.138Z,99424.47
2018-11-29T03:55:16.653Z,99421.10
2018-11-29T03:57:45.151Z,99414.89
2018-11-29T04:00:15.439Z,99415.63
2018-11-29T04:02:44.665Z,99409.19
2018-11-29T04:05:13.098Z,99410.38
2018-11-29T04:07:41.733Z,99402.59
2018-11-29T04:10:14.009Z,99405.50
2018-11-29T04:12:42.646Z,99400.81
2018-11-29T04:15:12.192Z,99392.27
2018-11-29T04:17:41.369Z,99390.53
2018-11-29T04:20:13.400Z,99385.16
2018-11-29T04:22:41.912Z,99381.98
2018-11-29T04:25:12.706Z,99388.58
2018-11-29T04:27:41.206Z,99383.21
2018-11-29T04:30:16.671Z,99385.36
2018-11-29T04:32:45.676Z,99386.77
2018-11-29T04:35:15.578Z,99376.64
2018-11-29T04:37:44.121Z,99382.06
2018-11-29T04:40:17.460Z,99383.09
2018-11-29T04:42:46.136Z,99382.41
2018-11-29T04:45:16.198Z,99379.84
2018-11-29T04:47:45.115Z,99378.25
2018-11-29T04:50:14.130Z,99371.88
2018-11-29T04:52:42.609Z,99365.47
2018-11-29T04:55:11.707Z,99365.30
2018-11-29T04:57:40.179Z,99357.39
2018-11-29T05:00:13.331Z,99361.34
2018-11-29T05:02:42.225Z,99357.55
2018-11-29T05:05:11.274Z,99354.46
2018-11-29T05:07:39.790Z,99348.70
2018-11-29T05:10:09.905Z,99352.36
2018-11-29T05:12:38.398Z,99350.97
2018-11-29T05:15:08.874Z,99355.88
2018-11-29T05:17:37.369Z,99350.70
2018-11-29T05:20:06.237Z,99353.77
2018-11-29T05:22:35.495Z,99347.50
2018-11-29T05:25:04.318Z,99355.56
2018-11-29T05:27:32.778Z,99345.99
2018-11-29T05:30:01.414Z,99346.63
2018-11-29T05:32:29.991Z,99334.99
2018-11-29T05:34:58.509Z,99327.64
2018-11-29T05:37:27.506Z,99337.09
2018-11-29T05:39:56.178Z,99331.48
2018-11-29T05:42:24.658Z,99343.46
2018-11-29T05:44:53.249Z,99340.83
2018-11-29T05:47:21.834Z,99342.66
2018-11-29T05:49:50.439Z,99332.42
2018-11-29T05:52:18.916Z,99332.43
2018-11-29T05:54:47.475Z,99330.12
2018-11-29T05:57:16.888Z,99332.48
2018-11-29T05:59:45.697Z,99332.93
2018-11-29T06:02:14.240Z,99331.98
2018-11-29T06:04:42.743Z,99337.42
2018-11-29T06:07:11.263Z,99329.40
2018-11-29T06:09:40.164Z,99323.99
2018-11-29T06:12:08.788Z,99328.34
2018-11-29T06:14:37.468Z,99332.56
2018-11-29T06:17:05.987Z,99335.33
2018-11-29T06:19:34.443Z,99338.73
2018-11-29T06:22:02.990Z,99342.31
2018-11-29T06:24:31.532Z,99336.13
2018-11-29T06:27:00.071Z,99337.72
2018-11-29T06:29:28.652Z,99341.27
2018-11-29T06:31:57.282Z,99355.10
2018-11-29T06:34:25.764Z,99341.39
2018-11-29T06:36:54.549Z,99331.47
2018-11-29T06:39:23.093Z,99326.09
2018-11-29T06:41:51.690Z,99321.49
2018-11-29T06:44:20.133Z,99330.34
2018-11-29T06:46:48.657Z,99336.94
2018-11-29T06:49:17.184Z,99337.05
2018-11-29T06:51:45.718Z,99335.55
2018-11-29T06:54:14.201Z,99333.31
2018-11-29T06:56:42.730Z,99337.47
2018-11-29T06:59:11.253Z,99338.41
2018-11-29T07:01:39.778Z,99336.91
2018-11-29T07:04:08.540Z,99325.61
2018-11-29T07:06:37.177Z,99326.25
2018-11-29T07:09:08.214Z,99330.87
2018-11-29T07:11:36.780Z,99327.20
2018-11-29T07:14:05.550Z,99315.24
2018-11-29T07:16:34.082Z,99318.08
2018-11-29T07:19:03.122Z,99322.67
2018-11-29T07:21:42.834Z,99322.23
2018-11-29T07:24:11.666Z,99320.78
2018-11-29T07:26:40.157Z,99313.27
2018-11-29T07:29:08.711Z,99311.83
2018-11-29T07:31:37.338Z,99315.66
2018-11-29T07:34:07.053Z,99316.20
2018-11-29T07:36:36.698Z,99327.56
2018-11-29T07:39:10.703Z,99310.36
2018-11-29T07:41:40.005Z,99306.50
2018-11-29T07:44:10.471Z,99299.30
2018-11-29T07:46:39.031Z,99292.80
2018-11-29T07:49:07.585Z,99293.48
2018-11-29T07:51:36.186Z,99297.05
2018-11-29T07:54:05.014Z,99306.30
2018-11-29T07:56:33.548Z,99311.48
2018-11-29T07:59:02.203Z,99308.95
2018-11-29T08:01:30.648Z,99314.78
2018-11-29T08:03:59.236Z,99313.08
2018-11-29T08:06:27.702Z,99315.31
2018-11-29T08:08:56.258Z,99319.04
2018-11-29T08:11:24.739Z,99315.86
2018-11-29T08:13:54.164Z,99308.59
2018-11-29T08:16:24.588Z,99305.72
2018-11-29T08:18:53.129Z,99296.78
2018-11-29T08:21:21.587Z,99302.00
2018-11-29T08:23:50.149Z,99290.20
2018-11-29T08:26:20.632Z,99289.25
2018-11-29T08:28:49.127Z,99286.34
2018-11-29T08:31:20.001Z,99297.09
2018-11-29T08:33:53.116Z,99299.87
2018-11-29T08:36:21.716Z,99301.20
2018-11-29T08:38:50.206Z,99306.11
2018-11-29T08:41:18.935Z,99308.22
2018-11-29T08:43:47.529Z,99305.07
2018-11-29T08:46:16.297Z,99297.77
2018-11-29T08:48:45.745Z,99296.80
2018-11-29T08:51:14.335Z,99294.14
2018-11-29T08:53:42.821Z,99290.91
2018-11-29T08:56:11.322Z,99297.08
2018-11-29T08:58:39.814Z,99288.36
2018-11-29T09:01:08.319Z,99281.31
2018-11-29T09:03:36.937Z,99279.63
2018-11-29T09:06:07.041Z,99282.80
2018-11-29T09:08:35.874Z,99280.47
2018-11-29T09:11:04.986Z,99281.17
2018-11-29T09:13:33.445Z,99274.63
2018-11-29T09:16:02.101Z,99277.91
2018-11-29T09:18:31.070Z,99269.22
2018-11-29T09:20:59.582Z,99280.34
2018-11-29T09:23:28.101Z,99275.98
2018-11-29T09:25:57.323Z,99277.63
2018-11-29T09:28:25.766Z,99270.05
2018-11-29T09:30:54.273Z,99269.93
2018-11-29T09:33:22.927Z,99280.63
2018-11-29T09:35:51.406Z,99276.92
2018-11-29T09:38:19.950Z,99274.63
2018-11-29T09:40:48.470Z,99282.08
2018-11-29T09:43:17.686Z,99297.34
2018-11-29T09:45:46.182Z,99290.73
2018-11-29T09:48:15.159Z,99298.66
2018-11-29T09:50:44.374Z,99298.56
2018-11-29T09:53:12.905Z,99298.20
2018-11-29T09:55:41.527Z,99296.75
2018-11-29T09:58:10.065Z,99293.38
2018-11-29T10:00:38.626Z,99294.98
2018-11-29T10:03:11.665Z,99300.83
2018-11-29T10:05:41.106Z,99306.39
2018-11-29T10:08:11.952Z,99317.67
2018-11-29T10:10:39.690Z,99312.28
2018-11-29T10:13:08.707Z,99316.38
2018-11-29T10:15:38.220Z,99312.92
2018-11-29T10:18:07.186Z,99309.36
2018-11-29T10:20:35.678Z,99302.09
2018-11-29T10:23:04.195Z,99296.77
2018-11-29T10:25:33.317Z,99292.91
2018-11-29T10:28:06.661Z,99291.94
2018-11-29T10:30:39.044Z,99293.14
2018-11-29T10:33:08.092Z,99283.63
2018-11-29T10:35:37.411Z,99282.02
2018-11-29T10:38:06.072Z,99278.74
2018-11-29T10:40:34.601Z,99283.49
2018-11-29T10:43:03.061Z,99281.24
2018-11-29T10:45:31.537Z,99265.83
2018-11-29T10:48:00.043Z,99268.70
2018-11-29T10:50:29.297Z,99258.85
2018-11-29T10:52:58.368Z,99265.38
2018-11-29T10:55:26.893Z,99266.92
2018-11-29T10:57:55.511Z,99254.31
2018-11-29T11:00:30.236Z,99266.80
2018-11-29T11:03:18.957Z,99275.95
2018-11-29T11:05:49.703Z,99266.52
2018-11-29T11:08:18.396Z,99264.84
2018-11-29T11:10:46.943Z,99263.80
2018-11-29T11:13:15.526Z,99249.74
2018-11-29T11:15:45.018Z,99240.72
2018-11-29T11:18:14.628Z,99235.42
2018-11-29T11:20:43.184Z,99229.42
2018-11-29T11:23:11.799Z,99216.54
2018-11-29T11:25:40.458Z,99211.63
2018-11-29T11:28:09.890Z,99199.83
2018-11-29T11:30:41.221Z,99192.98
2018-11-29T11:33:09.708Z,99176.70
2018-11-29T11:35:38.326Z,99162.56
2018-11-29T11:38:06.922Z,99146.71
2018-11-29T11:40:35.506Z,99145.02
2018-11-29T11:43:05.396Z,99137.58
2018-11-29T11:45:33.173Z,99140.59
2018-11-29T11:48:03.429Z,99159.45
2018-11-29T11:50:30.270Z,99164.38
2018-11-29T11:52:58.832Z,99151.77
2018-11-29T11:55:30.230Z,99156.92
2018-11-29T11:57:56.203Z,99153.45
2018-11-29T12:00:26.796Z,99140.36
2018-11-29T12:02:57.487Z,99121.72
2018-11-29T12:05:25.982Z,99102.64
2018-11-29T12:07:54.558Z,99091.69
2018-11-29T12:10:23.101Z,99089.52
2018-11-29T12:12:51.934Z,99098.55
2018-11-29T12:15:20.426Z,99114.05
2018-11-29T12:17:49.093Z,99116.45
2018-11-29T12:20:18.753Z,99102.02
2018-11-29T12:22:47.364Z,99114.75
2018-11-29T12:25:17.702Z,99086.52
2018-11-29T12:27:46.184Z,99067.66
2018-11-29T12:30:29.850Z,99051.69
2018-11-29T12:32:59.803Z,99036.19
2018-11-29T12:35:29.504Z,99041.71
2018-11-29T12:37:58.075Z,99040.02
2018-11-29T12:40:26.611Z,99055.52
2018-11-29T12:42:55.147Z,99065.46
2018-11-29T12:45:23.656Z,99073.67
2018-11-29T12:47:52.264Z,99061.98
2018-11-29T12:50:24.107Z,99044.19
2018-11-29T12:52:52.809Z,99048.36
2018-11-29T12:55:22.178Z,99043.22
2018-11-29T12:58:04.706Z,99039.66
2018-11-29T13:00:20.189Z,99035.89
2018-11-29T13:02:58.490Z,99044.80
2018-11-29T13:05:28.140Z,99037.91
2018-11-29T13:07:57.012Z,99030.98
2018-11-29T13:10:26.779Z,99033.05
2018-11-29T13:12:56.924Z,99030.35
2018-11-29T13:15:29.501Z,99015.70
2018-11-29T13:17:58.813Z,99021.69
2018-11-29T13:20:32.324Z,99026.66
2018-11-29T13:22:55.991Z,99032.19
2018-11-29T13:25:25.773Z,99038.61
2018-11-29T13:27:54.967Z,99025.97
2018-11-29T13:30:23.897Z,99027.94
2018-11-29T13:32:54.742Z,99020.63
2018-11-29T13:35:26.646Z,99015.15
2018-11-29T13:37:58.175Z,99010.21
2018-11-29T13:40:27.231Z,99005.73
2018-11-29T13:42:55.758Z,99002.39
2018-11-29T13:45:24.440Z,98993.52
2018-11-29T13:47:52.853Z,98992.50
2018-11-29T13:50:21.429Z,98991.77
2018-11-29T13:52:49.937Z,98989.63
2018-11-29T13:55:18.635Z,98985.15
2018-11-29T13:57:49.553Z,98979.29
2018-11-29T14:00:19.986Z,98981.31
2018-11-29T14:02:50.568Z,98975.52
2018-11-29T14:05:19.552Z,98938.00
2018-11-29T14:07:48.053Z,98974.81
2018-11-29T14:10:18.637Z,98971.27
2018-11-29T14:12:48.302Z,98971.83
2018-11-29T14:15:19.182Z,98962.56
2018-11-29T14:17:47.652Z,98972.76
2018-11-29T14:20:16.261Z,98979.29
2018-11-29T14:22:44.808Z,98985.40
2018-11-29T14:25:14.407Z,98988.51
2018-11-29T14:27:45.377Z,98985.75
2018-11-29T14:30:17.691Z,98983.48
2018-11-29T14:32:46.616Z,98981.43
2018-11-29T14:35:16.077Z,98961.95
2018-11-29T14:37:44.736Z,98967.16
2018-11-29T14:40:14.548Z,98970.63
2018-11-29T14:42:43.053Z,98968.39
2018-11-29T14:45:12.508Z,98957.36
2018-11-29T14:47:41.169Z,98957.09
2018-11-29T14:50:17.843Z,98955.77
2018-11-29T14:52:46.412Z,98958.44
2018-11-29T14:55:15.228Z,98970.95
2018-11-29T14:57:43.769Z,98975.88
2018-11-29T15:00:13.289Z,98983.57
2018-11-29T15:02:41.975Z,98982.96
2018-11-29T15:05:14.150Z,98973.75
2018-11-29T15:07:42.680Z,98968.52
2018-11-29T15:10:11.438Z,98971.26
2018-11-29T15:12:40.118Z,98974.25
2018-11-29T15:15:10.866Z,98969.21
2018-11-29T15:17:40.593Z,98969.34
2018-11-29T15:20:13.549Z,98981.93
2018-11-29T15:22:42.319Z,98978.59
2018-11-29T15:25:11.040Z,98970.42
2018-11-29T15:27:39.551Z,98971.86
2018-11-29T15:30:14.479Z,98977.25
2018-11-29T15:32:42.949Z,98970.54
2018-11-29T15:35:12.234Z,98971.14
2018-11-29T15:37:40.959Z,98966.59
2018-11-29T15:40:11.056Z,98968.51
2018-11-29T15:42:40.481Z,98957.59
2018-11-29T15:45:11.667Z,98948.09
2018-11-29T15:47:40.196Z,98949.30
2018-11-29T15:50:11.323Z,98942.11
2018-11-29T15:52:39.821Z,98947.86
2018-11-29T15:55:14.427Z,98936.48
2018-11-29T15:57:42.943Z,98932.16
2018-11-29T16:00:17.625Z,98933.09
2018-11-29T16:02:48.247Z,98941.86
2018-11-29T16:05:18.368Z,98939.58
2018-11-29T16:07:46.946Z,98931.64
2018-11-29T16:10:19.650Z,98926.13
2018-11-29T16:12:48.442Z,98927.41
2018-11-29T16:15:19.025Z,98930.77
2018-11-29T16:17:48.304Z,98257.86
2018-11-29T16:20:19.360Z,98943.20
2018-11-29T16:22:47.978Z,98941.85
2018-11-29T16:25:16.749Z,98939.82
2018-11-29T16:27:45.329Z,98933.17
2018-11-29T16:30:26.532Z,98947.41
2018-11-29T16:32:56.066Z,98950.19
2018-11-29T16:35:25.197Z,98951.36
2018-11-29T16:37:54.545Z,98953.49
2018-11-29T16:40:23.973Z,98954.48
2018-11-29T16:42:52.498Z,98948.13
2018-11-29T16:45:22.193Z,98944.42
2018-11-29T16:47:51.744Z,98943.34
2018-11-29T16:50:20.501Z,98943.45
2018-11-29T16:52:49.075Z,98942.48
2018-11-29T16:55:17.639Z,98949.87
2018-11-29T16:57:48.594Z,98945.69
2018-11-29T17:00:20.187Z,98947.18
2018-11-29T17:02:48.810Z,98949.81
2018-11-29T17:05:17.866Z,98947.37
2018-11-29T17:07:47.620Z,98912.11
2018-11-29T17:10:17.316Z,98946.37
2018-11-29T17:12:50.783Z,98949.67
2018-11-29T17:15:20.507Z,98950.83
2018-11-29T17:17:49.060Z,98942.40
2018-11-29T17:20:18.626Z,98949.25
2018-11-29T17:22:48.242Z,98961.77
2018-11-29T17:25:16.830Z,98962.77
2018-11-29T17:27:45.300Z,98964.52
2018-11-29T17:30:18.242Z,98959.70
2018-11-29T17:32:46.906Z,98955.89
2018-11-29T17:35:15.383Z,98957.49
2018-11-29T17:37:43.935Z,98947.86
2018-11-29T17:40:14.478Z,98945.00
2018-11-29T17:42:43.206Z,98943.11
2018-11-29T17:45:14.161Z,98949.95
2018-11-29T17:47:43.649Z,98953.00
2018-11-29T17:50:46.047Z,98961.95
2018-11-29T17:53:14.688Z,98953.00
2018-11-29T17:55:43.722Z,98945.36
2018-11-29T17:58:14.785Z,98948.55
2018-11-29T18:00:44.909Z,98950.95
2018-11-29T18:03:15.516Z,98950.45
2018-11-29T18:05:44.117Z,98955.31
2018-11-29T18:08:12.633Z,98956.20
2018-11-29T18:10:41.889Z,98954.16
2018-11-29T18:13:19.486Z,98952.94
2018-11-29T18:15:48.050Z,98958.14
2018-11-29T18:18:16.528Z,98960.44
2018-11-29T18:20:45.129Z,98960.34
2018-11-29T18:23:14.199Z,98951.95
2018-11-29T18:25:42.816Z,98942.80
2018-11-29T18:28:11.975Z,98936.94
2018-11-29T18:30:41.113Z,98935.82
2018-11-29T18:33:09.705Z,98935.16
2018-11-29T18:35:39.722Z,98933.31
2018-11-29T18:38:08.552Z,98927.20
2018-11-29T18:40:37.249Z,98933.25
2018-11-29T18:43:07.617Z,98935.05
2018-11-29T18:45:36.250Z,98947.86
2018-11-29T18:48:04.883Z,98947.41
2018-11-29T18:50:34.396Z,98944.20
2018-11-29T18:53:03.022Z,98939.27
2018-11-29T18:55:31.813Z,98940.97
2018-11-29T18:58:00.502Z,98943.20
2018-11-29T19:00:32.446Z,98942.63
2018-11-29T19:03:01.014Z,98946.77
2018-11-29T19:05:29.634Z,98942.31
2018-11-29T19:07:58.196Z,98955.84
2018-11-29T19:10:26.904Z,98955.39
2018-11-29T19:13:06.780Z,98951.36
2018-11-29T19:15:36.153Z,98956.44
2018-11-29T19:18:10.297Z,98948.73
2018-11-29T19:20:34.756Z,98946.16
2018-11-29T19:23:04.250Z,98948.01
2018-11-29T19:25:32.915Z,98948.48
2018-11-29T19:28:01.460Z,98950.73
2018-11-29T19:30:31.872Z,98947.83
2018-11-29T19:33:06.033Z,98947.73
2018-11-29T19:35:35.524Z,98945.79
2018-11-29T19:38:05.631Z,98945.11
2018-11-29T19:40:34.221Z,98946.55
2018-11-29T19:43:05.532Z,98938.23
2018-11-29T19:45:34.173Z,98940.72
2018-11-29T19:48:04.104Z,98945.75
2018-11-29T19:50:33.097Z,98941.67
2018-11-29T19:53:02.608Z,98939.68
2018-11-29T19:55:32.951Z,98935.83
2018-11-29T19:58:02.301Z,98934.92
2018-11-29T20:00:31.779Z,98934.66
2018-11-29T20:03:01.111Z,98938.45
2018-11-29T20:05:30.398Z,98901.58
2018-11-29T20:07:59.190Z,98941.61
2018-11-29T20:10:28.711Z,98936.20
2018-11-29T20:13:02.803Z,98939.68
2018-11-29T20:15:33.200Z,98939.95
2018-11-29T20:18:02.528Z,98925.55
2018-11-29T20:20:31.266Z,98929.31
2018-11-29T20:23:00.171Z,98924.42
2018-11-29T20:25:29.556Z,98923.38
2018-11-29T20:27:58.215Z,98894.38
2018-11-29T20:30:26.863Z,98932.29
2018-11-29T20:32:56.421Z,98926.83
2018-11-29T20:35:25.064Z,98924.42
2018-11-29T20:37:54.315Z,98924.30
2018-11-29T20:40:28.945Z,98924.66
2018-11-29T20:42:58.889Z,98924.20
2018-11-29T20:45:38.010Z,98927.00
2018-11-29T20:48:18.294Z,98915.59
2018-11-29T20:50:47.493Z,98921.44
2018-11-29T20:53:18.103Z,98925.67
2018-11-29T20:55:47.326Z,98909.59
2018-11-29T20:58:16.462Z,98910.48
2018-11-29T21:00:45.141Z,98923.87
2018-11-29T21:03:13.812Z,98921.01
2018-11-29T21:05:43.237Z,98918.08
2018-11-29T21:08:12.584Z,98926.30
2018-11-29T21:10:41.289Z,98913.92
2018-11-29T21:13:09.893Z,98901.92
2018-11-29T21:15:40.666Z,98908.54
2018-11-29T21:18:11.485Z,98901.59
2018-11-29T21:20:41.542Z,98908.69
2018-11-29T21:23:11.779Z,98900.23
2018-11-29T21:25:40.548Z,98899.16
2018-11-29T21:28:09.192Z,98884.00
2018-11-29T21:30:38.487Z,98887.11
2018-11-29T21:33:07.788Z,98890.83
2018-11-29T21:35:36.398Z,98882.45
2018-11-29T21:38:12.386Z,98875.05
2018-11-29T21:40:42.406Z,98887.92
2018-11-29T21:43:11.688Z,98882.81
2018-11-29T21:45:40.784Z,98872.33
2018-11-29T21:48:09.382Z,98871.94
2018-11-29T21:50:38.546Z,98874.85
2018-11-29T21:53:07.315Z,98864.42
2018-11-29T21:55:36.145Z,98864.91
2018-11-29T21:58:04.709Z,98867.61
2018-11-29T22:00:33.522Z,98865.70
2018-11-29T22:03:02.141Z,98875.42
2018-11-29T22:05:30.843Z,98875.34
2018-11-29T22:07:59.457Z,98877.41
2018-11-29T22:10:28.008Z,98876.98
2018-11-29T22:12:57.199Z,98880.06
2018-11-29T22:15:27.018Z,98873.60
2018-11-29T22:18:02.756Z,98880.58
2018-11-29T22:20:31.725Z,98880.12
2018-11-29T22:23:00.352Z,98885.41
2018-11-29T22:25:29.359Z,98890.98
2018-11-29T22:27:58.853Z,98894.86
2018-11-29T22:30:27.565Z,98890.61
2018-11-29T22:32:56.106Z,98896.42
2018-11-29T22:35:25.114Z,98895.97
2018-11-29T22:37:53.664Z,98898.87
2018-11-29T22:40:22.291Z,98893.52
2018-11-29T22:42:50.962Z,98896.94
2018-11-29T22:45:22.147Z,98889.64
2018-11-29T22:47:50.813Z,98893.27
2018-11-29T22:50:33.090Z,98891.11
2018-11-29T22:53:12.461Z,98888.82
2018-11-29T22:55:42.871Z,98898.55
2018-11-29T22:58:11.418Z,98896.33
2018-11-29T23:00:45.370Z,98894.03
2018-11-29T23:03:14.276Z,98902.59
2018-11-29T23:05:43.785Z,98901.72
2018-11-29T23:08:13.001Z,98897.16
2018-11-29T23:11:12.449Z,98909.92
2018-11-29T23:13:40.995Z,98894.74
2018-11-29T23:16:09.725Z,98903.53
2018-11-29T23:18:38.330Z,98898.19
2018-11-29T23:21:07.039Z,98894.00
2018-11-29T23:23:35.853Z,98897.13
2018-11-29T23:26:04.421Z,98906.23
2018-11-29T23:28:33.235Z,98895.36
2018-11-29T23:31:01.898Z,98901.88
2018-11-29T23:33:30.539Z,98900.70
2018-11-29T23:35:59.193Z,98891.95
2018-11-29T23:38:27.808Z,98894.73
2018-11-29T23:40:57.026Z,98897.23
2018-11-29T23:43:25.960Z,98893.02
2018-11-29T23:45:54.731Z,98888.19
2018-11-29T23:48:23.477Z,98894.73
2018-11-29T23:50:52.171Z,98893.48
2018-11-29T23:53:20.808Z,98876.55
2018-11-29T23:55:49.433Z,98884.05
2018-11-29T23:58:18.001Z,98885.12
